Time;durP1;ratioP1;P1;durP2;ratioP2;P2;SDS_P1;SDS_P2;PMS_P1;PMS_P2;Temp;Humidity;BMP_temperature;BMP_pressure;BME280_temperature;BME280_humidity;BME280_pressure;Samples;Min_cycle;Max_cycle;Signal;HPM_P1;HPM_P2
2022/04/14 00:01:22;;;;;;;25.25;17.20;;;;;;;13.46;73.46;100006.38;4974864;28;20113;-66
2022/04/14 00:03:48;;;;;;;19.75;15.73;;;;;;;13.50;73.35;100012.31;4973840;28;20122;-65
2022/04/14 00:06:13;;;;;;;24.50;16.77;;;;;;;13.46;73.22;100009.00;5002842;28;25210;-67
2022/04/14 00:08:38;;;;;;;22.77;17.60;;;;;;;13.39;74.01;100005.00;4969365;28;20042;-66
2022/04/14 00:11:04;;;;;;;22.95;15.77;;;;;;;13.40;73.46;100000.56;4972295;28;20073;-67
2022/04/14 00:13:29;;;;;;;19.45;15.88;;;;;;;13.41;73.51;100002.25;4970247;28;20039;-67
2022/04/14 00:15:55;;;;;;;22.60;16.27;;;;;;;13.41;73.84;99997.81;4971888;28;20558;-66
2022/04/14 00:18:20;;;;;;;18.63;15.10;;;;;;;13.41;73.35;99996.97;4972754;28;20110;-65
2022/04/14 00:20:46;;;;;;;17.85;14.65;;;;;;;13.41;73.42;99997.81;4970911;28;20034;-64
2022/04/14 00:23:11;;;;;;;23.83;17.83;;;;;;;13.39;73.15;99994.41;4970779;28;20447;-66
2022/04/14 00:25:37;;;;;;;17.05;14.63;;;;;;;13.40;73.94;99995.25;4970231;28;20043;-64
2022/04/14 00:28:02;;;;;;;26.88;19.73;;;;;;;13.35;74.41;100000.81;4972113;28;20466;-65
2022/04/14 00:30:28;;;;;;;24.73;18.88;;;;;;;13.32;74.41;99999.19;4970995;28;20097;-65
2022/04/14 00:32:53;;;;;;;22.17;16.20;;;;;;;13.29;74.64;99999.38;4972749;28;20043;-65
2022/04/14 00:35:19;;;;;;;25.90;19.60;;;;;;;13.27;75.16;99995.97;4973528;28;20058;-64
2022/04/14 00:37:44;;;;;;;27.38;22.30;;;;;;;13.26;75.17;100003.94;4972649;28;20047;-64
2022/04/14 00:40:10;;;;;;;23.98;19.40;;;;;;;13.24;75.22;100001.41;4971370;28;20515;-64
2022/04/14 00:42:36;;;;;;;23.17;19.02;;;;;;;13.25;75.28;99999.59;4971118;28;20045;-65
2022/04/14 00:45:02;;;;;;;26.77;19.27;;;;;;;13.26;75.39;100001.31;4973800;28;20031;-65
2022/04/14 00:47:29;;;;;;;25.30;18.70;;;;;;;13.27;75.26;100001.25;4974419;28;20129;-66
2022/04/14 00:49:54;;;;;;;26.83;20.98;;;;;;;13.27;75.90;100000.41;4974390;28;20039;-66
2022/04/14 00:52:22;;;;;;;24.60;18.30;;;;;;;13.31;75.72;100004.56;4971044;28;20085;-65
2022/04/14 00:54:47;;;;;;;24.83;19.75;;;;;;;13.29;75.91;99996.75;4971453;28;20097;-67
2022/04/14 00:57:13;;;;;;;25.23;19.27;;;;;;;13.26;74.89;100003.94;4971255;28;20035;-63
2022/04/14 00:59:38;;;;;;;29.88;21.95;;;;;;;13.24;75.51;99997.88;4970756;28;20523;-65
2022/04/14 01:02:04;;;;;;;26.95;21.92;;;;;;;13.19;74.79;99987.59;4964007;28;20400;-66
2022/04/14 01:04:31;;;;;;;29.15;22.77;;;;;;;13.17;75.09;99989.47;4970796;28;20113;-65
2022/04/14 01:06:57;;;;;;;27.25;21.60;;;;;;;13.18;75.42;99987.66;4971169;28;20035;-66
2022/04/14 01:09:29;;;;;;;23.85;19.00;;;;;;;13.19;75.50;99989.34;4969888;28;20039;-67
2022/04/14 01:11:55;;;;;;;24.50;19.88;;;;;;;13.21;76.04;99996.25;4971393;28;20061;-66
2022/04/14 01:14:35;;;;;;;28.20;21.55;;;;;;;13.21;75.83;100004.22;4969173;28;20066;-64
2022/04/14 01:17:06;;;;;;;31.02;20.35;;;;;;;13.21;76.44;100011.31;4992831;28;20030;-65
2022/04/14 01:19:31;;;;;;;23.65;18.92;;;;;;;13.19;76.54;100005.25;4969236;28;20047;-65
2022/04/14 01:22:24;;;;;;;22.58;19.35;;;;;;;13.20;76.64;99999.88;4958896;28;20035;-65
2022/04/14 01:24:54;;;;;;;24.10;17.75;;;;;;;13.13;77.34;100002.94;4979083;28;20194;-65
2022/04/14 01:27:19;;;;;;;19.33;15.38;;;;;;;13.10;77.97;100001.31;4977376;28;20466;-66
2022/04/14 01:29:46;;;;;;;19.17;16.77;;;;;;;13.10;77.99;100004.81;4979911;28;20058;-65
2022/04/14 01:32:11;;;;;;;25.88;21.08;;;;;;;13.07;78.17;100007.66;4977649;28;20031;-65
2022/04/14 01:34:37;;;;;;;23.85;21.13;;;;;;;13.06;77.80;100005.94;4980740;28;20038;-66
2022/04/14 01:37:02;;;;;;;27.30;21.45;;;;;;;13.05;78.96;100006.88;4980379;28;20539;-67
2022/04/14 01:39:28;;;;;;;21.25;17.25;;;;;;;13.07;78.60;100015.59;4980368;28;20035;-66
2022/04/14 01:41:53;;;;;;;26.08;17.65;;;;;;;13.07;77.87;100010.31;4979508;28;20462;-66
2022/04/14 01:44:19;;;;;;;27.30;20.05;;;;;;;13.08;78.73;100016.44;4975495;28;20049;-67
2022/04/14 01:46:45;;;;;;;23.58;18.17;;;;;;;13.04;77.86;100010.47;4976987;28;20073;-67
2022/04/14 01:49:11;;;;;;;27.15;21.30;;;;;;;13.01;78.74;100007.13;4977178;28;20122;-67
2022/04/14 01:51:37;;;;;;;29.10;21.15;;;;;;;12.92;78.61;99997.03;4976324;28;20387;-67
2022/04/14 01:54:03;;;;;;;23.17;20.30;;;;;;;12.89;79.29;99995.44;4976555;28;20387;-66
2022/04/14 01:56:29;;;;;;;26.13;20.92;;;;;;;12.83;79.65;99993.13;4976759;28;20035;-69
2022/04/14 01:58:54;;;;;;;23.85;19.55;;;;;;;12.77;79.68;99991.66;4976694;28;20034;-67
2022/04/14 02:01:22;;;;;;;23.92;19.08;;;;;;;12.79;79.89;99994.22;4974579;28;20121;-66
2022/04/14 02:03:48;;;;;;;28.25;18.65;;;;;;;12.77;79.60;99991.66;4980137;28;20035;-66
2022/04/14 02:06:14;;;;;;;29.48;20.73;;;;;;;12.77;79.27;99991.66;4979742;28;20558;-66
2022/04/14 02:08:39;;;;;;;26.17;19.13;;;;;;;12.75;79.57;99995.31;4980716;28;20034;-65
2022/04/14 02:11:05;;;;;;;26.30;21.77;;;;;;;12.72;79.71;100000.78;4980098;28;20065;-65
2022/04/14 02:13:31;;;;;;;25.27;20.10;;;;;;;12.70;80.21;99989.44;4980319;28;20030;-65
2022/04/14 02:15:57;;;;;;;28.25;20.25;;;;;;;12.71;80.17;99989.38;4980100;28;20803;-67
2022/04/14 02:18:22;;;;;;;24.38;19.67;;;;;;;12.71;79.61;99988.53;4979726;28;20052;-66
2022/04/14 02:20:48;;;;;;;29.50;20.90;;;;;;;12.67;79.78;99983.41;4979338;28;20042;-65
2022/04/14 02:23:13;;;;;;;25.67;19.42;;;;;;;12.64;79.30;99974.75;4978380;28;20061;-66
2022/04/14 02:25:38;;;;;;;28.00;19.73;;;;;;;12.61;79.75;99972.28;4977488;28;20121;-66
2022/04/14 02:28:04;;;;;;;27.08;19.48;;;;;;;12.53;80.81;99967.44;4977709;28;20035;-68
2022/04/14 02:30:29;;;;;;;27.48;21.05;;;;;;;12.52;80.59;99960.41;4976614;28;20035;-65
2022/04/14 02:32:55;;;;;;;29.92;22.65;;;;;;;12.49;80.52;99963.22;4973210;28;20027;-66
2022/04/14 02:35:20;;;;;;;24.25;19.95;;;;;;;12.45;80.07;99954.63;4973877;28;20031;-66
2022/04/14 02:37:46;;;;;;;26.02;19.52;;;;;;;12.46;80.52;99955.47;4973935;28;20117;-66
2022/04/14 02:40:11;;;;;;;25.45;19.02;;;;;;;12.44;80.04;99960.00;4976476;28;20050;-65
2022/04/14 02:42:38;;;;;;;26.70;20.95;;;;;;;12.41;80.26;99968.94;4977306;28;20046;-65
2022/04/14 02:45:03;;;;;;;26.20;18.40;;;;;;;12.41;80.22;99971.59;4975889;28;20035;-66
2022/04/14 02:47:29;;;;;;;26.20;19.75;;;;;;;12.42;80.47;99964.50;4973751;28;20050;-66
2022/04/14 02:49:55;;;;;;;28.85;21.80;;;;;;;12.41;80.23;99976.03;4971929;28;20454;-68
2022/04/14 02:52:20;;;;;;;31.33;21.60;;;;;;;12.35;80.42;99978.97;4972586;28;20058;-67
2022/04/14 02:54:45;;;;;;;30.13;20.75;;;;;;;12.27;80.45;99976.75;4973012;28;20057;-67
2022/04/14 02:57:11;;;;;;;26.60;18.92;;;;;;;12.29;80.76;99976.69;4973361;28;20048;-66
2022/04/14 02:59:39;;;;;;;29.25;21.23;;;;;;;12.28;80.95;99982.88;4972891;28;20027;-65
2022/04/14 03:02:05;;;;;;;28.00;21.73;;;;;;;12.22;80.54;99971.72;4974466;28;20034;-66
2022/04/14 03:04:30;;;;;;;24.15;18.27;;;;;;;12.20;80.85;99967.44;4975915;28;20062;-66
2022/04/14 03:06:57;;;;;;;29.17;21.70;;;;;;;12.16;80.77;99960.63;4975984;28;20039;-66
2022/04/14 03:09:22;;;;;;;25.65;20.65;;;;;;;12.15;81.09;99957.09;4976521;28;20494;-65
2022/04/14 03:11:48;;;;;;;26.55;18.38;;;;;;;12.17;81.10;99964.97;4975465;28;20062;-66
2022/04/14 03:14:13;;;;;;;31.50;21.58;;;;;;;12.22;81.32;99969.06;4975826;28;20549;-65
2022/04/14 03:16:39;;;;;;;33.85;26.73;;;;;;;12.20;81.74;99970.94;4976524;28;20030;-65
2022/04/14 03:19:04;;;;;;;24.30;19.45;;;;;;;12.17;82.28;99983.47;4976592;28;20473;-65
2022/04/14 03:21:30;;;;;;;29.02;22.85;;;;;;;12.19;83.13;99984.25;4975470;28;20342;-66
2022/04/14 03:23:55;;;;;;;37.33;25.95;;;;;;;12.10;82.96;99974.16;4976288;28;20053;-65
2022/04/14 03:26:20;;;;;;;26.48;20.30;;;;;;;12.02;83.75;99978.03;4977356;28;20054;-65
2022/04/14 03:28:46;;;;;;;29.50;21.05;;;;;;;12.00;83.28;99965.84;4978320;28;20043;-66
2022/04/14 03:31:11;;;;;;;26.92;19.40;;;;;;;12.05;83.38;99974.38;4974844;28;20416;-66
2022/04/14 03:33:37;;;;;;;33.05;23.38;;;;;;;12.09;82.55;99960.09;4972779;28;20031;-66
2022/04/14 03:36:03;;;;;;;30.92;23.73;;;;;;;12.10;83.03;99979.44;4972564;28;20057;-66
2022/04/14 03:38:28;;;;;;;33.45;25.77;;;;;;;12.09;84.01;99980.38;4972610;28;20061;-66
2022/04/14 03:40:53;;;;;;;37.75;28.23;;;;;;;12.03;83.86;99978.88;4971912;28;20037;-66
2022/04/14 03:43:19;;;;;;;37.15;25.45;;;;;;;12.03;84.71;99976.25;4971798;28;20402;-67
2022/04/14 03:45:44;;;;;;;46.25;30.10;;;;;;;12.01;84.66;99971.06;4972104;28;20062;-66
2022/04/14 03:48:10;;;;;;;30.70;22.83;;;;;;;12.05;85.00;99965.59;4972719;28;20093;-66
2022/04/14 03:50:35;;;;;;;42.08;26.95;;;;;;;12.01;84.48;99967.53;4971738;28;20035;-67
2022/04/14 03:53:01;;;;;;;36.35;25.13;;;;;;;11.93;85.38;99972.38;4971644;28;20035;-65
2022/04/14 03:55:26;;;;;;;34.45;23.63;;;;;;;11.90;85.16;99976.03;4972069;28;20039;-67
2022/04/14 03:57:51;;;;;;;37.22;26.67;;;;;;;11.90;85.65;99977.81;4971890;28;20037;-67
2022/04/14 04:00:17;;;;;;;29.60;22.27;;;;;;;11.92;85.78;99976.81;4970509;28;20054;-66
2022/04/14 04:02:42;;;;;;;27.50;22.27;;;;;;;11.94;85.60;99980.25;4972145;28;20097;-66
2022/04/14 04:05:08;;;;;;;37.90;26.55;;;;;;;11.96;85.73;99967.81;4972315;28;20045;-66
2022/04/14 04:07:34;;;;;;;32.47;22.67;;;;;;;11.94;86.20;99977.59;4971847;28;20035;-67
2022/04/14 04:09:59;;;;;;;27.90;21.50;;;;;;;11.96;86.03;99977.50;4971525;28;20049;-67
2022/04/14 04:12:24;;;;;;;43.17;28.38;;;;;;;11.96;86.01;99974.84;4971281;28;20045;-67
2022/04/14 04:14:50;;;;;;;43.28;28.65;;;;;;;11.94;86.13;99974.09;4969872;28;20065;-66
2022/04/14 04:17:16;;;;;;;32.63;24.33;;;;;;;11.97;86.47;99972.16;4971504;28;20058;-67
2022/04/14 04:19:43;;;;;;;35.67;26.00;;;;;;;12.01;86.62;99975.47;4971716;28;20037;-67
2022/04/14 04:22:09;;;;;;;36.15;23.45;;;;;;;12.04;86.39;99985.91;4970447;28;20039;-66
2022/04/14 04:24:35;;;;;;;33.65;23.55;;;;;;;12.06;85.94;99991.09;4971177;28;20521;-65
2022/04/14 04:27:00;;;;;;;37.30;26.27;;;;;;;12.06;86.61;99991.09;4971432;28;20035;-67
2022/04/14 04:29:25;;;;;;;28.83;23.88;;;;;;;12.06;87.22;99994.59;4971351;28;20039;-67
2022/04/14 04:31:51;;;;;;;41.72;28.95;;;;;;;12.08;87.33;99999.78;4970631;28;20505;-65
2022/04/14 04:34:19;;;;;;;40.83;26.98;;;;;;;12.05;86.70;99998.16;4971575;28;20098;-66
2022/04/14 04:36:45;;;;;;;35.45;25.45;;;;;;;12.03;87.40;99992.97;4971291;28;20062;-66
2022/04/14 04:39:10;;;;;;;42.28;26.80;;;;;;;12.02;86.23;99993.06;4970224;28;20058;-67
2022/04/14 04:41:35;;;;;;;34.17;23.63;;;;;;;12.01;86.22;100000.13;4970338;28;20039;-66
2022/04/14 04:44:01;;;;;;;40.40;26.00;;;;;;;12.01;86.65;100002.78;4971389;28;20534;-67
2022/04/14 04:46:26;;;;;;;39.33;26.98;;;;;;;12.02;86.85;100004.47;4971146;28;20039;-66
2022/04/14 04:48:52;;;;;;;45.00;29.23;;;;;;;12.03;86.17;100002.66;4971117;28;20046;-67
2022/04/14 04:51:17;;;;;;;45.13;30.73;;;;;;;11.99;86.77;100009.06;4970435;28;20476;-67
2022/04/14 04:53:43;;;;;;;38.40;28.38;;;;;;;11.95;86.74;100010.16;4971093;28;20043;-67
2022/04/14 04:56:09;;;;;;;44.28;27.73;;;;;;;11.92;86.64;100007.66;4970676;28;20035;-67
2022/04/14 04:58:34;;;;;;;44.80;29.35;;;;;;;11.86;86.87;100007.94;4970540;28;20047;-66
2022/04/14 05:00:59;;;;;;;37.97;26.63;;;;;;;11.84;87.18;100002.75;4970210;28;20039;-66
2022/04/14 05:03:25;;;;;;;44.60;31.13;;;;;;;11.85;87.14;100012.38;4970979;28;20042;-67
2022/04/14 05:05:50;;;;;;;49.22;30.73;;;;;;;11.87;87.36;100007.06;4969547;28;20545;-66
2022/04/14 05:08:16;;;;;;;37.33;26.10;;;;;;;11.86;87.44;100005.28;4970857;28;20037;-67
2022/04/14 05:10:42;;;;;;;47.55;30.38;;;;;;;11.86;86.93;100003.50;4970975;28;20034;-67
2022/04/14 05:13:07;;;;;;;38.63;26.77;;;;;;;11.85;87.23;100006.25;4969333;28;20402;-66
2022/04/14 05:15:32;;;;;;;52.42;30.98;;;;;;;11.82;87.05;100001.97;4970598;28;20035;-68
2022/04/14 05:17:58;;;;;;;36.08;26.02;;;;;;;11.80;87.28;100006.47;4970802;28;20459;-66
2022/04/14 05:20:23;;;;;;;37.22;25.02;;;;;;;11.78;86.89;100001.25;4978521;28;20050;-66
2022/04/14 05:22:49;;;;;;;32.80;23.70;;;;;;;11.78;86.47;100014.47;4983339;28;20066;-69
2022/04/14 05:25:14;;;;;;;35.25;25.83;;;;;;;11.78;86.64;100016.25;4970422;28;20110;-68
2022/04/14 05:27:42;;;;;;;38.33;27.05;;;;;;;11.73;86.94;100019.13;4970837;28;20039;-68
2022/04/14 05:30:08;;;;;;;34.88;25.75;;;;;;;11.72;87.49;100021.88;4965874;28;20041;-67
2022/04/14 05:32:33;;;;;;;46.15;30.95;;;;;;;11.72;87.57;100022.72;4969996;28;20050;-68
2022/04/14 05:34:58;;;;;;;39.20;24.55;;;;;;;11.70;87.59;100029.84;4970549;28;20063;-67
2022/04/14 05:37:23;;;;;;;40.78;28.92;;;;;;;11.68;86.87;100031.72;4970541;28;20121;-67
2022/04/14 05:39:49;;;;;;;46.00;31.55;;;;;;;11.68;87.44;100033.50;4970533;28;20139;-67
2022/04/14 05:42:14;;;;;;;51.50;34.30;;;;;;;11.64;87.92;100034.56;4969595;28;20615;-68
2022/04/14 05:44:40;;;;;;;50.10;32.10;;;;;;;11.62;87.99;100037.31;4970618;28;20053;-68
2022/04/14 05:47:05;;;;;;;42.55;28.60;;;;;;;11.61;88.05;100038.22;4970175;28;20162;-67
2022/04/14 05:49:31;;;;;;;43.00;28.50;;;;;;;11.63;87.62;100043.44;4970295;28;20034;-69
2022/04/14 05:51:56;;;;;;;41.38;28.10;;;;;;;11.64;87.86;100045.13;4955838;28;20039;-68
2022/04/14 05:54:21;;;;;;;43.22;27.88;;;;;;;11.65;88.06;100046.88;4963624;28;20047;-68
2022/04/14 05:56:47;;;;;;;45.72;30.05;;;;;;;11.65;88.08;100042.44;4965716;28;20110;-68
2022/04/14 05:59:16;;;;;;;45.55;29.38;;;;;;;11.67;88.24;100055.56;4965995;28;20033;-67
2022/04/14 06:01:44;;;;;;;36.58;25.38;;;;;;;11.67;88.25;100048.50;4969401;28;20038;-67
2022/04/14 06:04:09;;;;;;;45.30;29.92;;;;;;;11.72;87.67;100049.13;4968985;28;20039;-67
2022/04/14 06:06:34;;;;;;;36.20;25.92;;;;;;;11.75;87.40;100054.25;4970106;28;20093;-67
2022/04/14 06:09:00;;;;;;;54.13;31.10;;;;;;;11.75;88.13;100048.13;4973889;28;20045;-68
2022/04/14 06:11:25;;;;;;;37.85;26.17;;;;;;;11.75;87.58;100054.25;4973318;28;20043;-68
2022/04/14 06:13:51;;;;;;;42.38;30.52;;;;;;;11.76;87.29;100057.72;4973760;28;20069;-66
2022/04/14 06:16:16;;;;;;;34.67;23.27;;;;;;;11.77;87.13;100055.03;4973756;28;20042;-68
2022/04/14 06:18:42;;;;;;;41.22;28.75;;;;;;;11.79;86.52;100054.97;4973897;28;20045;-67
2022/04/14 06:21:07;;;;;;;34.53;25.35;;;;;;;11.79;85.96;100061.09;4973666;28;20042;-67
2022/04/14 06:23:32;;;;;;;37.97;26.85;;;;;;;11.80;85.71;100067.22;4974937;28;20039;-68
2022/04/14 06:25:58;;;;;;;38.92;25.27;;;;;;;11.80;85.28;100060.16;4974765;28;20058;-68
2022/04/14 06:28:24;;;;;;;37.28;26.40;;;;;;;11.86;85.16;100073.97;4973788;28;20043;-67
2022/04/14 06:30:51;;;;;;;38.60;27.80;;;;;;;11.89;85.34;100065.94;4973276;28;20027;-68
2022/04/14 06:33:17;;;;;;;34.78;26.85;;;;;;;12.02;84.43;100072.31;4973277;28;20034;-68
2022/04/14 06:35:43;;;;;;;35.33;24.55;;;;;;;12.23;83.72;100068.59;4973629;28;20037;-69
2022/04/14 06:38:08;;;;;;;35.78;25.50;;;;;;;12.55;82.83;100070.47;4973613;28;20562;-66
2022/04/14 06:40:35;;;;;;;37.95;24.33;;;;;;;12.79;80.78;100076.25;4973378;28;20035;-68
2022/04/14 06:43:01;;;;;;;38.20;25.83;;;;;;;13.03;79.32;100072.28;4973233;28;20038;-68
2022/04/14 06:45:27;;;;;;;29.65;23.58;;;;;;;13.28;79.12;100082.38;4973598;28;20047;-67
2022/04/14 06:47:52;;;;;;;34.90;24.02;;;;;;;13.39;78.36;100079.16;4974169;28;20118;-67
2022/04/14 06:50:18;;;;;;;29.23;22.63;;;;;;;13.58;77.22;100075.44;4973688;28;20074;-70
2022/04/14 06:52:43;;;;;;;29.85;24.45;;;;;;;13.78;75.97;100075.16;4973262;28;20098;-68
2022/04/14 06:55:09;;;;;;;32.97;24.15;;;;;;;14.05;74.89;100067.38;4974285;28;20082;-66
2022/04/14 06:57:34;;;;;;;29.83;21.73;;;;;;;14.47;73.82;100079.03;4973593;28;20437;-67
2022/04/14 07:00:00;;;;;;;25.38;20.85;;;;;;;14.86;72.45;100076.69;4972641;28;20039;-68
2022/04/14 07:02:25;;;;;;;28.90;20.92;;;;;;;15.23;70.97;100076.09;4972753;28;20058;-68
2022/04/14 07:04:51;;;;;;;34.75;23.83;;;;;;;15.50;69.77;100079.72;4973760;28;20031;-68
2022/04/14 07:07:16;;;;;;;29.48;20.85;;;;;;;15.81;68.13;100079.44;4972073;28;20038;-67
2022/04/14 07:09:41;;;;;;;24.52;18.52;;;;;;;15.98;67.29;100085.47;4974072;28;20035;-67
2022/04/14 07:12:08;;;;;;;19.52;16.52;;;;;;;16.28;65.65;100082.53;4972652;28;20027;-67
2022/04/14 07:14:33;;;;;;;22.17;17.15;;;;;;;16.46;64.08;100078.59;4973271;28;20168;-68
2022/04/14 07:17:00;;;;;;;20.80;16.05;;;;;;;16.61;62.87;100082.00;4973034;28;20039;-67
2022/04/14 07:19:26;;;;;;;17.80;13.73;;;;;;;16.73;62.06;100085.63;4972589;28;20057;-68
2022/04/14 07:21:51;;;;;;;18.38;15.68;;;;;;;16.85;62.11;100086.59;4972101;28;20038;-68
2022/04/14 07:24:17;;;;;;;20.13;15.23;;;;;;;17.01;61.47;100094.38;4973377;28;20090;-68
2022/04/14 07:26:43;;;;;;;20.65;14.98;;;;;;;17.15;60.48;100089.78;4973589;28;20034;-67
2022/04/14 07:29:09;;;;;;;18.00;15.50;;;;;;;17.46;59.31;100087.53;4973625;28;20035;-67
2022/04/14 07:31:35;;;;;;;22.33;16.45;;;;;;;17.78;59.38;100084.31;4972465;28;20130;-67
2022/04/14 07:34:01;;;;;;;27.00;15.88;;;;;;;18.14;58.41;100078.06;4972880;28;20082;-68
2022/04/14 07:36:27;;;;;;;25.80;17.40;;;;;;;18.38;57.16;100085.97;4971425;28;20039;-66
2022/04/14 07:38:52;;;;;;;19.73;14.68;;;;;;;18.41;56.98;100082.22;4972748;28;20452;-66
2022/04/14 07:41:18;;;;;;;22.42;19.15;;;;;;;18.47;57.67;100087.09;4970547;28;20399;-66
2022/04/14 07:43:43;;;;;;;21.80;17.77;;;;;;;18.49;58.08;100087.84;4970993;28;20039;-68
2022/04/14 07:46:08;;;;;;;23.30;17.02;;;;;;;18.44;57.31;100084.69;4972438;28;20038;-68
2022/04/14 07:48:34;;;;;;;19.95;16.63;;;;;;;18.75;56.49;100090.28;4972838;28;20475;-67
2022/04/14 07:51:01;;;;;;;28.58;17.85;;;;;;;18.87;56.06;100087.53;4971943;28;20077;-67
2022/04/14 07:53:27;;;;;;;26.58;16.55;;;;;;;18.88;54.55;100091.06;4972675;28;20058;-67
2022/04/14 07:55:52;;;;;;;23.02;16.27;;;;;;;19.24;54.93;100092.59;4972482;28;20062;-67
2022/04/14 07:58:17;;;;;;;18.60;13.10;;;;;;;19.34;53.77;100095.38;4972182;28;20027;-66
2022/04/14 08:00:43;;;;;;;12.82;10.30;;;;;;;19.69;51.73;100097.91;4973117;28;20034;-67
2022/04/14 08:03:09;;;;;;;12.35;8.60;;;;;;;20.17;49.08;100093.94;4971658;28;20031;-67
2022/04/14 08:05:36;;;;;;;14.98;7.63;;;;;;;20.40;46.84;100094.66;4972001;28;20376;-67
2022/04/14 08:08:06;;;;;;;16.65;10.20;;;;;;;20.37;47.39;100093.06;4972034;28;20184;-67
2022/04/14 08:10:33;;;;;;;14.32;8.85;;;;;;;20.53;45.88;100089.94;4971988;28;20038;-68
2022/04/14 08:12:58;;;;;;;16.13;10.60;;;;;;;20.83;44.74;100098.19;4971622;28;20181;-67
2022/04/14 08:15:24;;;;;;;17.05;11.13;;;;;;;21.09;45.11;100102.06;4972492;28;20110;-67
2022/04/14 08:17:50;;;;;;;14.05;11.85;;;;;;;21.41;44.60;100109.13;4971697;28;20433;-67
2022/04/14 08:20:16;;;;;;;16.70;12.73;;;;;;;21.57;44.61;100111.31;4971409;28;20121;-67
2022/04/14 08:22:51;;;;;;;21.60;14.30;;;;;;;22.03;44.66;100105.28;4970922;28;20562;-68
2022/04/14 08:25:22;;;;;;;17.92;13.52;;;;;;;21.97;43.71;100104.97;4971054;28;20049;-68
2022/04/14 08:27:49;;;;;;;22.92;18.77;;;;;;;22.05;44.19;100103.31;4971076;28;20046;-67
2022/04/14 08:30:16;;;;;;;22.95;16.73;;;;;;;22.27;42.83;100112.06;4970089;28;20041;-68
2022/04/14 08:32:43;;;;;;;21.98;16.02;;;;;;;22.16;42.57;100112.19;4970786;28;20045;-68
2022/04/14 08:35:08;;;;;;;16.25;14.23;;;;;;;22.22;41.65;100112.47;4970606;28;20058;-70
2022/04/14 08:37:34;;;;;;;21.77;15.05;;;;;;;22.57;41.66;100112.88;4970999;28;20483;-67
2022/04/14 08:39:59;;;;;;;23.08;16.10;;;;;;;22.76;40.78;100120.03;4970593;28;20089;-68
2022/04/14 08:42:29;;;;;;;18.45;16.42;;;;;;;22.47;41.62;100111.06;4970379;28;20038;-68
2022/04/14 08:45:01;;;;;;;19.92;15.38;;;;;;;22.41;41.76;100119.69;4970709;28;20086;-68
2022/04/14 08:47:29;;;;;;;20.60;17.65;;;;;;;22.20;42.43;100124.34;4970801;28;20404;-68
2022/04/14 08:49:56;;;;;;;30.35;17.88;;;;;;;21.91;44.20;100124.34;4970706;28;20403;-68
2022/04/14 08:52:22;;;;;;;27.17;17.60;;;;;;;21.84;42.25;100130.25;4970270;28;20520;-67
2022/04/14 08:54:49;;;;;;;23.05;16.23;;;;;;;21.62;43.80;100135.88;4970555;28;20113;-67
2022/04/14 08:57:15;;;;;;;21.25;18.75;;;;;;;21.13;44.49;100127.66;4970704;28;20039;-67
2022/04/14 08:59:45;;;;;;;28.35;18.25;;;;;;;20.69;45.98;100132.38;4970471;28;20035;-68
2022/04/14 09:02:16;;;;;;;39.72;20.30;;;;;;;21.36;45.03;100127.44;4970412;28;20550;-67
2022/04/14 09:04:43;;;;;;;28.27;17.92;;;;;;;21.82;43.72;100123.34;4970743;28;20494;-67
2022/04/14 09:07:09;;;;;;;24.80;18.88;;;;;;;21.71;44.17;100118.97;4970801;28;20038;-67
2022/04/14 09:09:35;;;;;;;31.73;18.42;;;;;;;21.70;44.85;100122.59;4970705;28;20121;-68
2022/04/14 09:12:01;;;;;;;38.63;19.65;;;;;;;21.75;44.39;100124.88;4970054;28;20042;-68
2022/04/14 09:14:27;;;;;;;17.88;15.98;;;;;;;21.78;44.47;100129.97;4970692;28;20034;-68
2022/04/14 09:16:53;;;;;;;23.63;16.95;;;;;;;21.88;44.41;100117.44;4970629;28;20031;-67
2022/04/14 09:19:20;;;;;;;23.67;17.80;;;;;;;22.28;43.55;100120.00;4970528;28;20223;-67
2022/04/14 09:22:10;;;;;;;30.20;22.35;;;;;;;22.87;40.94;100118.03;4969614;28;20038;-67
2022/04/14 09:24:55;;;;;;;28.33;23.65;;;;;;;22.88;40.59;100111.66;4969291;28;20043;-67
2022/04/14 09:27:37;;;;;;;27.65;22.15;;;;;;;23.10;40.74;100115.84;4970600;28;20145;-68
2022/04/14 09:30:08;;;;;;;26.05;23.23;;;;;;;23.91;39.06;100106.19;4970429;28;20027;-68
2022/04/14 09:32:36;;;;;;;30.83;24.88;;;;;;;23.12;40.83;100104.94;4970385;28;20538;-68
2022/04/14 09:35:15;;;;;;;29.05;24.77;;;;;;;22.85;41.11;100111.09;4969147;28;20450;-67
2022/04/14 09:37:41;;;;;;;40.10;26.67;;;;;;;21.96;42.18;100103.31;4970758;28;20038;-67
2022/04/14 09:40:09;;;;;;;35.40;25.10;;;;;;;21.23;44.12;100114.28;4970169;28;20038;-67
2022/04/14 09:42:36;;;;;;;29.63;22.05;;;;;;;20.91;45.15;100114.44;4972449;28;20089;-68
2022/04/14 09:45:28;;;;;;;40.38;25.73;;;;;;;20.33;46.31;100110.41;4967884;28;20066;-67
2022/04/14 09:48:00;;;;;;;139.32;35.83;;;;;;;19.87;48.12;100114.25;4973175;28;20108;-67
2022/04/14 09:50:35;;;;;;;24.25;19.13;;;;;;;19.57;47.67;100111.41;4954307;28;20045;-67
2022/04/14 09:53:09;;;;;;;29.83;21.38;;;;;;;19.50;47.86;100108.38;4954649;28;20110;-68
2022/04/14 09:55:36;;;;;;;32.58;21.65;;;;;;;21.40;43.87;100102.94;4953535;28;20070;-67
2022/04/14 09:58:17;;;;;;;29.73;20.30;;;;;;;23.03;40.91;100098.59;4954337;28;20086;-68
2022/04/14 10:01:03;;;;;;;33.20;22.10;;;;;;;24.13;39.12;100099.47;4973584;28;20038;-67
2022/04/14 10:03:30;;;;;;;25.33;16.63;;;;;;;24.91;36.10;100096.00;4973606;28;20039;-67
2022/04/14 10:06:14;;;;;;;52.13;21.77;;;;;;;24.00;38.03;100089.94;4973882;28;20038;-67
2022/04/14 10:08:51;;;;;;;27.73;19.73;;;;;;;23.60;38.70;100094.91;4973872;28;20066;-67
2022/04/14 10:11:24;;;;;;;17.42;14.10;;;;;;;22.99;39.76;100089.16;4973095;28;20045;-68
2022/04/14 10:13:49;;;;;;;39.22;20.13;;;;;;;22.22;41.29;100096.38;4974097;28;20031;-67
2022/04/14 10:16:20;;;;;;;23.15;12.30;;;;;;;22.04;40.56;100085.47;4973747;28;20468;-67
2022/04/14 10:18:46;;;;;;;34.10;15.25;;;;;;;21.53;41.75;100081.19;4972386;28;20164;-62
2022/04/14 10:21:14;;;;;;;36.83;16.38;;;;;;;22.39;40.00;100080.53;4973769;28;20190;-62
2022/04/14 10:23:40;;;;;;;24.45;13.65;;;;;;;23.59;37.37;100069.81;4973613;28;20101;-64
2022/04/14 10:26:07;;;;;;;24.13;12.70;;;;;;;23.20;37.80;100069.22;4975795;28;20058;-62
2022/04/14 10:28:35;;;;;;;41.17;13.85;;;;;;;22.39;38.89;100067.09;4976233;28;20531;-62
2022/04/14 10:31:01;;;;;;;16.10;9.38;;;;;;;22.57;39.04;100061.81;4973364;28;20046;-67
2022/04/14 10:33:28;;;;;;;34.65;14.05;;;;;;;21.92;40.32;100062.44;4952130;28;20679;-66
2022/04/14 10:35:53;;;;;;;17.17;12.15;;;;;;;21.44;40.92;100069.50;4962082;28;20146;-68
2022/04/14 10:38:37;;;;;;;24.58;13.15;;;;;;;21.09;41.40;100067.22;4968554;28;20121;-67
2022/04/14 10:41:07;;;;;;;12.57;9.90;;;;;;;20.70;41.96;100064.41;4968302;28;20798;-66
2022/04/14 10:43:34;;;;;;;12.60;10.05;;;;;;;20.35;42.24;100076.31;4968425;28;20066;-67
2022/04/14 10:46:00;;;;;;;18.20;9.90;;;;;;;20.21;42.51;100078.47;4968747;28;20038;-67
2022/04/14 10:48:31;;;;;;;13.50;10.68;;;;;;;19.87;43.27;100076.78;4968392;28;20045;-66
2022/04/14 10:51:26;;;;;;;14.23;10.85;;;;;;;20.05;43.57;100065.53;4967640;28;20166;-66
2022/04/14 10:54:01;;;;;;;46.22;13.40;;;;;;;19.79;43.52;100073.03;4966440;28;20053;-65
2022/04/14 10:56:42;;;;;;;13.85;10.35;;;;;;;19.62;44.12;100061.91;4970367;28;20035;-67
2022/04/14 10:59:11;;;;;;;15.57;10.73;;;;;;;20.08;43.04;100060.78;4968274;28;20653;-67
2022/04/14 11:01:52;;;;;;;15.85;8.63;;;;;;;20.33;42.25;100054.19;4967738;28;20035;-65
2022/04/14 11:04:50;;;;;;;32.30;11.40;;;;;;;20.44;40.79;100047.88;4967730;28;20038;-67
2022/04/14 11:07:22;;;;;;;23.33;9.90;;;;;;;20.45;41.51;100052.25;4968161;28;20042;-67
2022/04/14 11:09:51;;;;;;;17.70;10.85;;;;;;;20.82;41.74;100042.88;4968335;28;20109;-66
2022/04/14 11:12:20;;;;;;;34.03;14.98;;;;;;;21.09;41.40;100043.09;4967720;28;20062;-66